sensor_id;sensor_type;location;lat;lon;timestamp;P1;durP1;ratioP1;P2;durP2;ratioP2
77061;SDS011;65989;51.686;5.138;2023-02-28T00:01:34;91.05;;;31.77;;
77061;SDS011;65989;51.686;5.138;2023-02-28T00:03:59;70.47;;;23.77;;
77061;SDS011;65989;51.686;5.138;2023-02-28T00:06:25;76.40;;;27.57;;
77061;SDS011;65989;51.686;5.138;2023-02-28T00:08:50;92.63;;;31.88;;
77061;SDS011;65989;51.686;5.138;2023-02-28T00:11:16;59.13;;;23.27;;
77061;SDS011;65989;51.686;5.138;2023-02-28T00:13:42;62.47;;;23.42;;
77061;SDS011;65989;51.686;5.138;2023-02-28T00:16:20;48.37;;;19.70;;
77061;SDS011;65989;51.686;5.138;2023-02-28T00:18:46;34.88;;;15.38;;
77061;SDS011;65989;51.686;5.138;2023-02-28T00:21:15;39.55;;;16.92;;
77061;SDS011;65989;51.686;5.138;2023-02-28T00:23:41;36.83;;;16.38;;
77061;SDS011;65989;51.686;5.138;2023-02-28T00:26:07;17.67;;;8.90;;
77061;SDS011;65989;51.686;5.138;2023-02-28T00:28:32;23.67;;;11.03;;
77061;SDS011;65989;51.686;5.138;2023-02-28T00:30:58;37.90;;;16.13;;
77061;SDS011;65989;51.686;5.138;2023-02-28T00:33:24;35.80;;;15.60;;
77061;SDS011;65989;51.686;5.138;2023-02-28T00:35:50;28.38;;;13.57;;
77061;SDS011;65989;51.686;5.138;2023-02-28T00:38:15;25.83;;;11.83;;
77061;SDS011;65989;51.686;5.138;2023-02-28T00:40:41;24.00;;;11.77;;
77061;SDS011;65989;51.686;5.138;2023-02-28T00:43:06;22.17;;;10.93;;
77061;SDS011;65989;51.686;5.138;2023-02-28T00:45:32;25.87;;;11.30;;
77061;SDS011;65989;51.686;5.138;2023-02-28T00:47:57;16.13;;;7.43;;
77061;SDS011;65989;51.686;5.138;2023-02-28T00:50:23;19.60;;;9.53;;
77061;SDS011;65989;51.686;5.138;2023-02-28T00:52:48;30.43;;;14.70;;
77061;SDS011;65989;51.686;5.138;2023-02-28T00:55:14;22.37;;;11.20;;
77061;SDS011;65989;51.686;5.138;2023-02-28T00:57:40;18.57;;;9.50;;
77061;SDS011;65989;51.686;5.138;2023-02-28T01:00:06;17.95;;;9.55;;
77061;SDS011;65989;51.686;5.138;2023-02-28T01:02:32;22.93;;;11.03;;
77061;SDS011;65989;51.686;5.138;2023-02-28T01:04:58;13.73;;;7.15;;
77061;SDS011;65989;51.686;5.138;2023-02-28T01:07:23;11.93;;;5.67;;
77061;SDS011;65989;51.686;5.138;2023-02-28T01:09:49;13.63;;;7.27;;
77061;SDS011;65989;51.686;5.138;2023-02-28T01:12:14;14.60;;;7.87;;
77061;SDS011;65989;51.686;5.138;2023-02-28T01:14:39;32.40;;;15.80;;
77061;SDS011;65989;51.686;5.138;2023-02-28T01:17:05;26.57;;;12.17;;
77061;SDS011;65989;51.686;5.138;2023-02-28T01:19:31;26.90;;;14.17;;
77061;SDS011;65989;51.686;5.138;2023-02-28T01:21:56;29.57;;;15.23;;
77061;SDS011;65989;51.686;5.138;2023-02-28T01:24:22;22.67;;;11.57;;
77061;SDS011;65989;51.686;5.138;2023-02-28T01:26:47;22.57;;;10.23;;
77061;SDS011;65989;51.686;5.138;2023-02-28T01:29:12;21.77;;;10.97;;
77061;SDS011;65989;51.686;5.138;2023-02-28T01:31:38;18.30;;;9.25;;
77061;SDS011;65989;51.686;5.138;2023-02-28T01:34:03;16.20;;;7.63;;
77061;SDS011;65989;51.686;5.138;2023-02-28T01:36:29;14.20;;;7.17;;
77061;SDS011;65989;51.686;5.138;2023-02-28T01:38:54;11.47;;;6.73;;
77061;SDS011;65989;51.686;5.138;2023-02-28T01:41:22;13.07;;;7.18;;
77061;SDS011;65989;51.686;5.138;2023-02-28T01:44:00;15.07;;;7.13;;
77061;SDS011;65989;51.686;5.138;2023-02-28T01:46:52;10.50;;;5.78;;
77061;SDS011;65989;51.686;5.138;2023-02-28T01:49:17;10.50;;;5.40;;
77061;SDS011;65989;51.686;5.138;2023-02-28T01:54:26;10.50;;;5.37;;
77061;SDS011;65989;51.686;5.138;2023-02-28T01:56:58;9.65;;;5.47;;
77061;SDS011;65989;51.686;5.138;2023-02-28T01:59:35;9.98;;;5.18;;
77061;SDS011;65989;51.686;5.138;2023-02-28T02:02:13;12.82;;;6.00;;
77061;SDS011;65989;51.686;5.138;2023-02-28T02:04:42;12.90;;;6.00;;
77061;SDS011;65989;51.686;5.138;2023-02-28T02:07:15;11.40;;;5.97;;
77061;SDS011;65989;51.686;5.138;2023-02-28T02:09:41;11.90;;;6.20;;
77061;SDS011;65989;51.686;5.138;2023-02-28T02:12:14;11.53;;;5.50;;
77061;SDS011;65989;51.686;5.138;2023-02-28T02:15:02;10.27;;;5.22;;
77061;SDS011;65989;51.686;5.138;2023-02-28T02:17:36;12.52;;;5.38;;
77061;SDS011;65989;51.686;5.138;2023-02-28T02:22:55;9.43;;;4.60;;
77061;SDS011;65989;51.686;5.138;2023-02-28T02:25:47;12.85;;;5.28;;
77061;SDS011;65989;51.686;5.138;2023-02-28T02:28:35;10.00;;;5.05;;
77061;SDS011;65989;51.686;5.138;2023-02-28T02:40:04;10.18;;;5.32;;
77061;SDS011;65989;51.686;5.138;2023-02-28T02:42:39;10.85;;;5.20;;
77061;SDS011;65989;51.686;5.138;2023-02-28T02:48:08;12.82;;;5.15;;
77061;SDS011;65989;51.686;5.138;2023-02-28T02:50:38;9.90;;;5.13;;
77061;SDS011;65989;51.686;5.138;2023-02-28T02:53:08;10.20;;;4.38;;
77061;SDS011;65989;51.686;5.138;2023-02-28T02:55:38;9.57;;;5.20;;
77061;SDS011;65989;51.686;5.138;2023-02-28T02:58:10;9.60;;;4.88;;
77061;SDS011;65989;51.686;5.138;2023-02-28T03:00:41;9.60;;;4.70;;
77061;SDS011;65989;51.686;5.138;2023-02-28T03:03:11;7.80;;;4.70;;
77061;SDS011;65989;51.686;5.138;2023-02-28T03:08:33;10.93;;;5.80;;
77061;SDS011;65989;51.686;5.138;2023-02-28T03:11:01;11.20;;;5.18;;
77061;SDS011;65989;51.686;5.138;2023-02-28T03:19:29;11.45;;;5.50;;
77061;SDS011;65989;51.686;5.138;2023-02-28T03:25:09;8.15;;;4.78;;
77061;SDS011;65989;51.686;5.138;2023-02-28T03:30:35;11.03;;;5.27;;
77061;SDS011;65989;51.686;5.138;2023-02-28T03:33:11;9.68;;;5.07;;
77061;SDS011;65989;51.686;5.138;2023-02-28T03:36:15;9.50;;;5.50;;
77061;SDS011;65989;51.686;5.138;2023-02-28T03:38:40;8.70;;;4.80;;
77061;SDS011;65989;51.686;5.138;2023-02-28T03:41:35;8.32;;;4.63;;
77061;SDS011;65989;51.686;5.138;2023-02-28T03:44:06;9.33;;;4.63;;
77061;SDS011;65989;51.686;5.138;2023-02-28T03:46:41;8.80;;;4.65;;
77061;SDS011;65989;51.686;5.138;2023-02-28T03:49:15;10.98;;;4.70;;
77061;SDS011;65989;51.686;5.138;2023-02-28T03:51:45;10.48;;;4.97;;
77061;SDS011;65989;51.686;5.138;2023-02-28T03:54:16;11.43;;;4.80;;
77061;SDS011;65989;51.686;5.138;2023-02-28T03:57:17;11.77;;;4.97;;
77061;SDS011;65989;51.686;5.138;2023-02-28T03:59:49;11.27;;;4.82;;
77061;SDS011;65989;51.686;5.138;2023-02-28T04:02:21;10.75;;;5.10;;
77061;SDS011;65989;51.686;5.138;2023-02-28T04:04:46;10.03;;;5.50;;
77061;SDS011;65989;51.686;5.138;2023-02-28T04:07:13;10.00;;;5.00;;
77061;SDS011;65989;51.686;5.138;2023-02-28T04:09:39;9.43;;;5.25;;
77061;SDS011;65989;51.686;5.138;2023-02-28T04:12:05;11.20;;;5.35;;
77061;SDS011;65989;51.686;5.138;2023-02-28T04:14:31;11.63;;;5.43;;
77061;SDS011;65989;51.686;5.138;2023-02-28T04:16:56;12.37;;;6.03;;
77061;SDS011;65989;51.686;5.138;2023-02-28T04:19:22;12.33;;;5.80;;
77061;SDS011;65989;51.686;5.138;2023-02-28T04:21:49;9.67;;;5.57;;
77061;SDS011;65989;51.686;5.138;2023-02-28T04:24:16;14.65;;;6.38;;
77061;SDS011;65989;51.686;5.138;2023-02-28T04:26:47;9.95;;;5.45;;
77061;SDS011;65989;51.686;5.138;2023-02-28T04:29:25;8.90;;;5.20;;
77061;SDS011;65989;51.686;5.138;2023-02-28T04:31:56;7.80;;;5.10;;
77061;SDS011;65989;51.686;5.138;2023-02-28T04:34:24;10.07;;;5.20;;
77061;SDS011;65989;51.686;5.138;2023-02-28T04:36:53;9.88;;;5.05;;
77061;SDS011;65989;51.686;5.138;2023-02-28T04:39:20;11.52;;;5.32;;
77061;SDS011;65989;51.686;5.138;2023-02-28T04:41:46;8.87;;;4.70;;
77061;SDS011;65989;51.686;5.138;2023-02-28T04:44:12;11.02;;;5.00;;
77061;SDS011;65989;51.686;5.138;2023-02-28T04:46:38;12.07;;;5.13;;
77061;SDS011;65989;51.686;5.138;2023-02-28T04:49:03;9.57;;;5.07;;
77061;SDS011;65989;51.686;5.138;2023-02-28T04:51:29;13.07;;;5.30;;
77061;SDS011;65989;51.686;5.138;2023-02-28T04:53:54;9.10;;;4.97;;
77061;SDS011;65989;51.686;5.138;2023-02-28T04:56:20;9.63;;;5.00;;
77061;SDS011;65989;51.686;5.138;2023-02-28T04:58:46;10.03;;;5.37;;
77061;SDS011;65989;51.686;5.138;2023-02-28T05:01:27;8.98;;;5.47;;
77061;SDS011;65989;51.686;5.138;2023-02-28T05:03:55;10.15;;;5.07;;
77061;SDS011;65989;51.686;5.138;2023-02-28T05:06:23;11.63;;;5.13;;
77061;SDS011;65989;51.686;5.138;2023-02-28T05:08:50;11.27;;;5.20;;
77061;SDS011;65989;51.686;5.138;2023-02-28T05:11:20;10.82;;;5.43;;
77061;SDS011;65989;51.686;5.138;2023-02-28T05:13:47;12.30;;;5.60;;
77061;SDS011;65989;51.686;5.138;2023-02-28T05:16:13;11.82;;;5.70;;
77061;SDS011;65989;51.686;5.138;2023-02-28T05:18:39;11.63;;;5.40;;
77061;SDS011;65989;51.686;5.138;2023-02-28T05:21:04;11.20;;;5.80;;
77061;SDS011;65989;51.686;5.138;2023-02-28T05:23:30;12.95;;;5.80;;
77061;SDS011;65989;51.686;5.138;2023-02-28T05:25:55;9.67;;;5.60;;
77061;SDS011;65989;51.686;5.138;2023-02-28T05:28:21;10.98;;;5.40;;
77061;SDS011;65989;51.686;5.138;2023-02-28T05:30:47;10.33;;;5.40;;
77061;SDS011;65989;51.686;5.138;2023-02-28T05:33:13;11.27;;;5.57;;
77061;SDS011;65989;51.686;5.138;2023-02-28T05:35:39;10.25;;;5.75;;
77061;SDS011;65989;51.686;5.138;2023-02-28T05:38:06;9.57;;;5.40;;
77061;SDS011;65989;51.686;5.138;2023-02-28T05:40:31;12.25;;;6.22;;
77061;SDS011;65989;51.686;5.138;2023-02-28T05:42:57;11.63;;;5.80;;
77061;SDS011;65989;51.686;5.138;2023-02-28T05:45:22;11.07;;;5.80;;
77061;SDS011;65989;51.686;5.138;2023-02-28T05:47:47;10.13;;;5.40;;
77061;SDS011;65989;51.686;5.138;2023-02-28T05:50:13;12.27;;;5.90;;
77061;SDS011;65989;51.686;5.138;2023-02-28T05:52:38;10.63;;;5.20;;
77061;SDS011;65989;51.686;5.138;2023-02-28T05:55:04;9.77;;;5.17;;
77061;SDS011;65989;51.686;5.138;2023-02-28T05:57:29;9.73;;;5.30;;
77061;SDS011;65989;51.686;5.138;2023-02-28T05:59:55;9.13;;;5.73;;
77061;SDS011;65989;51.686;5.138;2023-02-28T06:02:20;9.53;;;5.20;;
77061;SDS011;65989;51.686;5.138;2023-02-28T06:04:46;12.83;;;5.50;;
77061;SDS011;65989;51.686;5.138;2023-02-28T06:07:11;11.38;;;5.70;;
77061;SDS011;65989;51.686;5.138;2023-02-28T06:09:37;11.13;;;5.67;;
77061;SDS011;65989;51.686;5.138;2023-02-28T06:12:03;11.70;;;6.32;;
77061;SDS011;65989;51.686;5.138;2023-02-28T06:14:31;10.70;;;5.45;;
77061;SDS011;65989;51.686;5.138;2023-02-28T06:16:57;8.73;;;5.30;;
77061;SDS011;65989;51.686;5.138;2023-02-28T06:19:26;9.48;;;5.07;;
77061;SDS011;65989;51.686;5.138;2023-02-28T06:21:52;10.60;;;5.30;;
77061;SDS011;65989;51.686;5.138;2023-02-28T06:24:22;8.97;;;4.87;;
77061;SDS011;65989;51.686;5.138;2023-02-28T06:26:49;14.18;;;5.20;;
77061;SDS011;65989;51.686;5.138;2023-02-28T06:29:14;8.53;;;4.80;;
77061;SDS011;65989;51.686;5.138;2023-02-28T06:31:42;9.95;;;4.30;;
77061;SDS011;65989;51.686;5.138;2023-02-28T06:34:09;8.38;;;4.80;;
77061;SDS011;65989;51.686;5.138;2023-02-28T06:36:36;9.82;;;4.70;;
77061;SDS011;65989;51.686;5.138;2023-02-28T06:39:02;8.43;;;4.50;;
77061;SDS011;65989;51.686;5.138;2023-02-28T06:41:27;11.07;;;5.00;;
77061;SDS011;65989;51.686;5.138;2023-02-28T06:43:53;7.40;;;4.37;;
77061;SDS011;65989;51.686;5.138;2023-02-28T06:46:18;10.27;;;4.37;;
77061;SDS011;65989;51.686;5.138;2023-02-28T06:48:44;9.85;;;4.20;;
77061;SDS011;65989;51.686;5.138;2023-02-28T06:51:12;9.35;;;4.60;;
77061;SDS011;65989;51.686;5.138;2023-02-28T06:53:39;8.35;;;4.47;;
77061;SDS011;65989;51.686;5.138;2023-02-28T06:56:06;9.27;;;4.63;;
77061;SDS011;65989;51.686;5.138;2023-02-28T06:58:33;9.35;;;4.45;;
77061;SDS011;65989;51.686;5.138;2023-02-28T07:00:59;10.32;;;4.85;;
77061;SDS011;65989;51.686;5.138;2023-02-28T07:03:24;9.57;;;4.93;;
77061;SDS011;65989;51.686;5.138;2023-02-28T07:05:52;7.93;;;3.97;;
77061;SDS011;65989;51.686;5.138;2023-02-28T07:08:17;9.63;;;4.23;;
77061;SDS011;65989;51.686;5.138;2023-02-28T07:10:43;8.73;;;4.40;;
77061;SDS011;65989;51.686;5.138;2023-02-28T07:13:09;10.15;;;4.43;;
77061;SDS011;65989;51.686;5.138;2023-02-28T07:15:35;10.40;;;4.10;;
77061;SDS011;65989;51.686;5.138;2023-02-28T07:18:02;11.48;;;5.07;;
77061;SDS011;65989;51.686;5.138;2023-02-28T07:20:28;9.88;;;4.57;;
77061;SDS011;65989;51.686;5.138;2023-02-28T07:22:54;11.97;;;4.27;;
77061;SDS011;65989;51.686;5.138;2023-02-28T07:25:23;9.38;;;4.28;;
77061;SDS011;65989;51.686;5.138;2023-02-28T07:27:49;9.88;;;4.70;;
77061;SDS011;65989;51.686;5.138;2023-02-28T07:30:15;10.13;;;4.53;;
77061;SDS011;65989;51.686;5.138;2023-02-28T07:32:41;9.90;;;4.38;;
77061;SDS011;65989;51.686;5.138;2023-02-28T07:35:06;8.53;;;4.20;;
77061;SDS011;65989;51.686;5.138;2023-02-28T07:37:32;7.00;;;3.15;;
77061;SDS011;65989;51.686;5.138;2023-02-28T07:40:01;12.17;;;3.70;;
77061;SDS011;65989;51.686;5.138;2023-02-28T07:42:32;7.53;;;3.50;;
77061;SDS011;65989;51.686;5.138;2023-02-28T07:44:57;7.23;;;3.60;;
77061;SDS011;65989;51.686;5.138;2023-02-28T07:47:23;6.82;;;3.67;;
77061;SDS011;65989;51.686;5.138;2023-02-28T07:49:49;8.30;;;3.80;;
77061;SDS011;65989;51.686;5.138;2023-02-28T07:52:14;6.63;;;3.40;;
77061;SDS011;65989;51.686;5.138;2023-02-28T07:54:40;8.77;;;3.77;;
77061;SDS011;65989;51.686;5.138;2023-02-28T07:57:05;9.23;;;3.77;;
77061;SDS011;65989;51.686;5.138;2023-02-28T07:59:30;8.50;;;3.47;;
77061;SDS011;65989;51.686;5.138;2023-02-28T08:01:56;8.33;;;3.20;;
77061;SDS011;65989;51.686;5.138;2023-02-28T08:04:22;6.65;;;3.30;;
77061;SDS011;65989;51.686;5.138;2023-02-28T08:06:47;6.43;;;3.50;;
77061;SDS011;65989;51.686;5.138;2023-02-28T08:09:13;6.47;;;2.90;;
77061;SDS011;65989;51.686;5.138;2023-02-28T08:11:39;6.55;;;2.92;;
77061;SDS011;65989;51.686;5.138;2023-02-28T08:14:04;5.77;;;2.60;;
77061;SDS011;65989;51.686;5.138;2023-02-28T08:16:30;7.07;;;2.30;;
77061;SDS011;65989;51.686;5.138;2023-02-28T08:18:56;5.00;;;2.22;;
77061;SDS011;65989;51.686;5.138;2023-02-28T08:21:21;4.60;;;2.33;;
77061;SDS011;65989;51.686;5.138;2023-02-28T08:23:47;5.70;;;2.60;;
77061;SDS011;65989;51.686;5.138;2023-02-28T08:26:13;4.78;;;2.30;;
77061;SDS011;65989;51.686;5.138;2023-02-28T08:28:39;4.95;;;2.17;;
77061;SDS011;65989;51.686;5.138;2023-02-28T08:31:09;4.87;;;2.50;;
77061;SDS011;65989;51.686;5.138;2023-02-28T08:33:35;6.03;;;2.40;;
77061;SDS011;65989;51.686;5.138;2023-02-28T08:36:01;8.70;;;2.70;;
77061;SDS011;65989;51.686;5.138;2023-02-28T08:38:26;5.00;;;2.60;;
77061;SDS011;65989;51.686;5.138;2023-02-28T08:40:59;8.80;;;2.20;;
77061;SDS011;65989;51.686;5.138;2023-02-28T08:43:26;3.90;;;2.00;;
77061;SDS011;65989;51.686;5.138;2023-02-28T08:45:52;5.80;;;1.90;;
77061;SDS011;65989;51.686;5.138;2023-02-28T08:48:19;5.53;;;2.00;;
77061;SDS011;65989;51.686;5.138;2023-02-28T08:50:54;3.38;;;1.65;;
77061;SDS011;65989;51.686;5.138;2023-02-28T08:53:26;4.13;;;1.80;;
77061;SDS011;65989;51.686;5.138;2023-02-28T08:55:56;4.20;;;1.80;;
77061;SDS011;65989;51.686;5.138;2023-02-28T08:58:22;3.20;;;1.70;;
77061;SDS011;65989;51.686;5.138;2023-02-28T09:00:47;5.03;;;1.97;;
77061;SDS011;65989;51.686;5.138;2023-02-28T09:03:13;3.73;;;1.90;;
77061;SDS011;65989;51.686;5.138;2023-02-28T09:05:38;5.10;;;1.97;;
77061;SDS011;65989;51.686;5.138;2023-02-28T09:08:04;3.77;;;1.87;;
77061;SDS011;65989;51.686;5.138;2023-02-28T09:10:29;4.00;;;1.88;;
77061;SDS011;65989;51.686;5.138;2023-02-28T09:12:54;4.40;;;1.97;;
77061;SDS011;65989;51.686;5.138;2023-02-28T09:15:20;4.60;;;2.10;;
77061;SDS011;65989;51.686;5.138;2023-02-28T09:17:45;5.77;;;2.10;;
77061;SDS011;65989;51.686;5.138;2023-02-28T09:20:11;4.00;;;2.10;;
77061;SDS011;65989;51.686;5.138;2023-02-28T09:22:37;4.30;;;2.17;;
77061;SDS011;65989;51.686;5.138;2023-02-28T09:25:02;5.17;;;2.20;;
77061;SDS011;65989;51.686;5.138;2023-02-28T09:27:28;4.13;;;2.20;;
77061;SDS011;65989;51.686;5.138;2023-02-28T09:29:53;4.87;;;2.40;;
77061;SDS011;65989;51.686;5.138;2023-02-28T09:32:18;5.43;;;2.10;;
77061;SDS011;65989;51.686;5.138;2023-02-28T09:34:44;5.30;;;2.10;;
77061;SDS011;65989;51.686;5.138;2023-02-28T09:37:09;6.10;;;1.90;;
77061;SDS011;65989;51.686;5.138;2023-02-28T09:39:34;4.47;;;2.20;;
77061;SDS011;65989;51.686;5.138;2023-02-28T09:42:00;5.03;;;1.80;;
77061;SDS011;65989;51.686;5.138;2023-02-28T09:49:39;4.73;;;1.90;;
77061;SDS011;65989;51.686;5.138;2023-02-28T09:52:12;4.18;;;1.80;;
77061;SDS011;65989;51.686;5.138;2023-02-28T09:54:41;4.25;;;2.30;;
77061;SDS011;65989;51.686;5.138;2023-02-28T09:57:29;3.63;;;1.90;;
77061;SDS011;65989;51.686;5.138;2023-02-28T10:00:05;6.60;;;2.67;;
77061;SDS011;65989;51.686;5.138;2023-02-28T10:05:27;4.88;;;1.92;;
77061;SDS011;65989;51.686;5.138;2023-02-28T10:08:28;5.67;;;2.37;;
77061;SDS011;65989;51.686;5.138;2023-02-28T10:11:00;4.22;;;2.10;;
77061;SDS011;65989;51.686;5.138;2023-02-28T10:21:59;7.13;;;2.37;;
77061;SDS011;65989;51.686;5.138;2023-02-28T10:26:59;4.65;;;2.08;;
77061;SDS011;65989;51.686;5.138;2023-02-28T10:29:27;4.15;;;2.03;;
77061;SDS011;65989;51.686;5.138;2023-02-28T10:32:01;3.92;;;1.80;;
77061;SDS011;65989;51.686;5.138;2023-02-28T10:34:28;8.70;;;1.70;;
77061;SDS011;65989;51.686;5.138;2023-02-28T10:36:54;4.32;;;1.88;;
77061;SDS011;65989;51.686;5.138;2023-02-28T10:42:18;3.43;;;1.73;;
77061;SDS011;65989;51.686;5.138;2023-02-28T10:44:45;4.55;;;2.40;;
77061;SDS011;65989;51.686;5.138;2023-02-28T10:47:15;4.77;;;1.97;;
77061;SDS011;65989;51.686;5.138;2023-02-28T10:49:46;3.80;;;1.70;;
77061;SDS011;65989;51.686;5.138;2023-02-28T10:52:13;3.63;;;1.90;;
77061;SDS011;65989;51.686;5.138;2023-02-28T10:55:20;6.03;;;2.22;;
77061;SDS011;65989;51.686;5.138;2023-02-28T10:57:48;4.32;;;2.03;;
77061;SDS011;65989;51.686;5.138;2023-02-28T11:00:22;4.50;;;1.80;;
77061;SDS011;65989;51.686;5.138;2023-02-28T11:02:50;4.65;;;1.95;;
77061;SDS011;65989;51.686;5.138;2023-02-28T11:07:56;2.78;;;1.40;;
77061;SDS011;65989;51.686;5.138;2023-02-28T11:10:28;3.53;;;1.77;;
77061;SDS011;65989;51.686;5.138;2023-02-28T11:12:59;4.17;;;2.07;;
77061;SDS011;65989;51.686;5.138;2023-02-28T11:15:29;4.57;;;2.17;;
77061;SDS011;65989;51.686;5.138;2023-02-28T11:20:26;4.10;;;2.10;;
77061;SDS011;65989;51.686;5.138;2023-02-28T11:22:54;5.30;;;2.28;;
77061;SDS011;65989;51.686;5.138;2023-02-28T11:25:35;3.73;;;1.60;;
77061;SDS011;65989;51.686;5.138;2023-02-28T11:33:30;4.32;;;2.20;;
77061;SDS011;65989;51.686;5.138;2023-02-28T11:36:09;4.00;;;1.90;;
77061;SDS011;65989;51.686;5.138;2023-02-28T11:38:40;4.40;;;2.10;;
77061;SDS011;65989;51.686;5.138;2023-02-28T11:46:30;3.80;;;2.10;;
77061;SDS011;65989;51.686;5.138;2023-02-28T11:51:53;3.10;;;1.67;;
77061;SDS011;65989;51.686;5.138;2023-02-28T11:54:32;3.38;;;1.80;;
77061;SDS011;65989;51.686;5.138;2023-02-28T11:59:46;3.83;;;1.97;;
77061;SDS011;65989;51.686;5.138;2023-02-28T12:02:34;3.55;;;1.52;;
77061;SDS011;65989;51.686;5.138;2023-02-28T12:08:02;3.85;;;1.98;;
77061;SDS011;65989;51.686;5.138;2023-02-28T12:10:29;4.10;;;1.73;;
77061;SDS011;65989;51.686;5.138;2023-02-28T12:13:24;3.72;;;1.90;;
77061;SDS011;65989;51.686;5.138;2023-02-28T12:19:09;5.35;;;2.55;;
77061;SDS011;65989;51.686;5.138;2023-02-28T12:26:58;4.05;;;2.00;;
77061;SDS011;65989;51.686;5.138;2023-02-28T12:34:44;4.28;;;2.30;;
77061;SDS011;65989;51.686;5.138;2023-02-28T12:37:27;4.73;;;1.90;;
77061;SDS011;65989;51.686;5.138;2023-02-28T12:40:03;5.07;;;2.20;;
77061;SDS011;65989;51.686;5.138;2023-02-28T12:42:58;4.72;;;2.40;;
77061;SDS011;65989;51.686;5.138;2023-02-28T12:45:31;4.70;;;2.35;;
77061;SDS011;65989;51.686;5.138;2023-02-28T12:48:12;4.40;;;2.35;;
77061;SDS011;65989;51.686;5.138;2023-02-28T12:50:40;8.87;;;3.47;;
77061;SDS011;65989;51.686;5.138;2023-02-28T12:53:27;3.83;;;2.00;;
77061;SDS011;65989;51.686;5.138;2023-02-28T12:58:42;4.72;;;2.30;;
77061;SDS011;65989;51.686;5.138;2023-02-28T13:04:12;5.50;;;2.27;;
77061;SDS011;65989;51.686;5.138;2023-02-28T13:09:31;5.15;;;2.30;;
77061;SDS011;65989;51.686;5.138;2023-02-28T13:11:57;3.83;;;2.30;;
77061;SDS011;65989;51.686;5.138;2023-02-28T13:14:24;6.70;;;2.47;;
77061;SDS011;65989;51.686;5.138;2023-02-28T13:16:53;4.75;;;2.17;;
77061;SDS011;65989;51.686;5.138;2023-02-28T13:19:23;4.38;;;2.15;;
77061;SDS011;65989;51.686;5.138;2023-02-28T13:21:51;6.73;;;2.73;;
77061;SDS011;65989;51.686;5.138;2023-02-28T13:24:40;4.68;;;2.40;;
77061;SDS011;65989;51.686;5.138;2023-02-28T13:29:34;4.60;;;2.40;;
77061;SDS011;65989;51.686;5.138;2023-02-28T13:34:31;6.13;;;2.73;;
77061;SDS011;65989;51.686;5.138;2023-02-28T13:39:45;4.15;;;2.30;;
77061;SDS011;65989;51.686;5.138;2023-02-28T13:47:56;6.87;;;2.60;;
77061;SDS011;65989;51.686;5.138;2023-02-28T13:55:42;4.72;;;2.35;;
77061;SDS011;65989;51.686;5.138;2023-02-28T14:06:47;4.13;;;2.20;;
77061;SDS011;65989;51.686;5.138;2023-02-28T14:11:56;5.63;;;2.60;;
77061;SDS011;65989;51.686;5.138;2023-02-28T14:16:59;4.90;;;2.80;;
77061;SDS011;65989;51.686;5.138;2023-02-28T14:19:27;5.50;;;2.80;;
77061;SDS011;65989;51.686;5.138;2023-02-28T14:27:26;4.97;;;2.40;;
77061;SDS011;65989;51.686;5.138;2023-02-28T14:30:05;4.30;;;2.43;;
77061;SDS011;65989;51.686;5.138;2023-02-28T14:38:23;5.22;;;2.38;;
77061;SDS011;65989;51.686;5.138;2023-02-28T14:40:53;5.18;;;2.55;;
77061;SDS011;65989;51.686;5.138;2023-02-28T14:43:22;4.77;;;2.53;;
77061;SDS011;65989;51.686;5.138;2023-02-28T14:45:50;4.88;;;2.33;;
77061;SDS011;65989;51.686;5.138;2023-02-28T14:48:18;8.18;;;2.92;;
77061;SDS011;65989;51.686;5.138;2023-02-28T14:50:49;8.85;;;2.80;;
77061;SDS011;65989;51.686;5.138;2023-02-28T14:53:20;7.15;;;2.90;;
77061;SDS011;65989;51.686;5.138;2023-02-28T14:55:48;5.47;;;2.90;;
77061;SDS011;65989;51.686;5.138;2023-02-28T15:00:54;6.13;;;3.25;;
77061;SDS011;65989;51.686;5.138;2023-02-28T15:03:22;7.32;;;2.90;;
77061;SDS011;65989;51.686;5.138;2023-02-28T15:05:53;5.85;;;2.90;;
77061;SDS011;65989;51.686;5.138;2023-02-28T15:08:22;5.57;;;2.33;;
77061;SDS011;65989;51.686;5.138;2023-02-28T15:10:55;6.05;;;2.90;;
77061;SDS011;65989;51.686;5.138;2023-02-28T15:13:26;6.70;;;2.92;;
77061;SDS011;65989;51.686;5.138;2023-02-28T15:16:08;5.43;;;2.13;;
77061;SDS011;65989;51.686;5.138;2023-02-28T15:23:42;6.63;;;2.83;;
77061;SDS011;65989;51.686;5.138;2023-02-28T15:26:18;4.93;;;2.53;;
77061;SDS011;65989;51.686;5.138;2023-02-28T15:28:48;4.50;;;2.30;;
77061;SDS011;65989;51.686;5.138;2023-02-28T15:31:28;5.18;;;2.30;;
77061;SDS011;65989;51.686;5.138;2023-02-28T15:33:57;9.37;;;2.20;;
77061;SDS011;65989;51.686;5.138;2023-02-28T15:36:29;4.10;;;2.10;;
77061;SDS011;65989;51.686;5.138;2023-02-28T15:38:58;7.38;;;2.08;;
77061;SDS011;65989;51.686;5.138;2023-02-28T15:41:35;9.75;;;2.15;;
77061;SDS011;65989;51.686;5.138;2023-02-28T15:49:23;6.18;;;2.10;;
77061;SDS011;65989;51.686;5.138;2023-02-28T15:51:50;6.05;;;2.47;;
77061;SDS011;65989;51.686;5.138;2023-02-28T15:54:19;5.35;;;2.42;;
77061;SDS011;65989;51.686;5.138;2023-02-28T15:56:50;4.23;;;2.20;;
77061;SDS011;65989;51.686;5.138;2023-02-28T15:59:18;6.30;;;2.55;;
77061;SDS011;65989;51.686;5.138;2023-02-28T16:01:46;4.90;;;2.50;;
77061;SDS011;65989;51.686;5.138;2023-02-28T16:04:26;4.88;;;2.50;;
77061;SDS011;65989;51.686;5.138;2023-02-28T16:09:24;5.47;;;2.43;;
77061;SDS011;65989;51.686;5.138;2023-02-28T16:11:50;7.03;;;2.40;;
77061;SDS011;65989;51.686;5.138;2023-02-28T16:14:26;4.03;;;2.27;;
77061;SDS011;65989;51.686;5.138;2023-02-28T16:16:56;5.13;;;2.75;;
77061;SDS011;65989;51.686;5.138;2023-02-28T16:19:28;7.30;;;2.20;;
77061;SDS011;65989;51.686;5.138;2023-02-28T16:21:54;5.88;;;2.55;;
77061;SDS011;65989;51.686;5.138;2023-02-28T16:24:19;6.07;;;2.50;;
77061;SDS011;65989;51.686;5.138;2023-02-28T16:26:45;8.90;;;2.73;;
77061;SDS011;65989;51.686;5.138;2023-02-28T16:29:18;4.90;;;2.47;;
77061;SDS011;65989;51.686;5.138;2023-02-28T16:31:49;5.07;;;2.20;;
77061;SDS011;65989;51.686;5.138;2023-02-28T16:34:15;6.13;;;2.70;;
77061;SDS011;65989;51.686;5.138;2023-02-28T16:36:40;6.77;;;3.27;;
77061;SDS011;65989;51.686;5.138;2023-02-28T16:39:06;6.90;;;3.00;;
77061;SDS011;65989;51.686;5.138;2023-02-28T16:41:31;5.47;;;2.60;;
77061;SDS011;65989;51.686;5.138;2023-02-28T16:43:59;5.95;;;2.53;;
77061;SDS011;65989;51.686;5.138;2023-02-28T16:46:31;6.57;;;2.87;;
77061;SDS011;65989;51.686;5.138;2023-02-28T16:48:59;4.53;;;2.40;;
77061;SDS011;65989;51.686;5.138;2023-02-28T16:51:27;5.00;;;2.83;;
77061;SDS011;65989;51.686;5.138;2023-02-28T16:53:52;5.97;;;2.60;;
77061;SDS011;65989;51.686;5.138;2023-02-28T16:56:19;5.20;;;2.80;;
77061;SDS011;65989;51.686;5.138;2023-02-28T16:58:46;5.60;;;2.73;;
77061;SDS011;65989;51.686;5.138;2023-02-28T17:01:13;6.68;;;2.78;;
77061;SDS011;65989;51.686;5.138;2023-02-28T17:03:39;7.70;;;3.22;;
77061;SDS011;65989;51.686;5.138;2023-02-28T17:06:05;6.18;;;3.38;;
77061;SDS011;65989;51.686;5.138;2023-02-28T17:08:31;7.07;;;3.40;;
77061;SDS011;65989;51.686;5.138;2023-02-28T17:10:57;6.57;;;3.50;;
77061;SDS011;65989;51.686;5.138;2023-02-28T17:13:24;9.80;;;3.05;;
77061;SDS011;65989;51.686;5.138;2023-02-28T17:15:49;7.60;;;2.90;;
77061;SDS011;65989;51.686;5.138;2023-02-28T17:18:17;7.50;;;2.75;;
77061;SDS011;65989;51.686;5.138;2023-02-28T17:20:44;6.32;;;2.90;;
77061;SDS011;65989;51.686;5.138;2023-02-28T17:23:10;5.93;;;2.90;;
77061;SDS011;65989;51.686;5.138;2023-02-28T17:25:35;7.80;;;3.40;;
77061;SDS011;65989;51.686;5.138;2023-02-28T17:28:01;6.77;;;3.90;;
77061;SDS011;65989;51.686;5.138;2023-02-28T17:30:26;11.10;;;3.00;;
77061;SDS011;65989;51.686;5.138;2023-02-28T17:32:56;6.63;;;2.90;;
77061;SDS011;65989;51.686;5.138;2023-02-28T17:35:22;6.20;;;3.00;;